Euskara    
Meteorología y climatología de Navarra
Datos de la estación - Meteo Navarra

Estación de Etxarri-Aranatz GN

Altitud 505 m.


Datos desde el 22/11/2020 hasta el 23/11/2020 en horario solar
Los datos son PROVISIONALES

Anterior Página 1 de 1 Siguiente Descargar: Formato para Excel 2000 o superior   Formato csv   Formato para OpenOffice Calc
Fecha Temperatura Humedad relativa Radiación global Insolación Precipitación Vel. viento 10 m Vel. viento 10 m Dir. viento 10 m
°C % W/m² s l/m² m/s km/h °
22/11/2020 0:00 -1.7 95 0.0 0 0.0 0.5 1.7 288
22/11/2020 0:10 -1.6 95 0.0 0 0.0 0.3 0.9 234
22/11/2020 0:20 -2.1 94 0.0 0 0.0 0.7 2.6 183
22/11/2020 0:30 -2.2 95 0.0 0 0.0 0.7 2.6 164
22/11/2020 0:40 -1.9 96 0.0 0 0.0 0.5 1.9 186
22/11/2020 0:50 -2.1 95 0.0 0 0.0 0.6 2.1 175
22/11/2020 1:00 -2.1 95 0.0 0 0.0 0.7 2.4 206
22/11/2020 1:10 -2.1 96 0.0 0 0.0 0.6 2.1 204
22/11/2020 1:20 -1.8 96 0.0 0 0.0 0.5 1.6 310
22/11/2020 1:30 -2.1 94 0.0 0 0.0 0.4 1.3 179
22/11/2020 1:40 -2.6 94 0.0 0 0.0 0.8 2.9 169
22/11/2020 1:50 -2.1 96 0.0 0 0.0 0.1 0.3 198
22/11/2020 2:00 -2.1 96 0.0 0 0.0 0.1 0.5 60
22/11/2020 2:10 -2.3 95 0.0 0 0.0 0.7 2.4 175
22/11/2020 2:20 -2.5 95 0.0 0 0.0 0.7 2.4 208
22/11/2020 2:30 -2.3 96 0.0 0 0.0 0.9 3.3 234
22/11/2020 2:40 -2.0 95 0.0 0 0.0 0.5 1.8 235
22/11/2020 2:50 -2.2 94 0.0 0 0.0 0.5 1.9 207
22/11/2020 3:00 -2.6 94 0.0 0 0.0 0.7 2.3 199
22/11/2020 3:10 -2.6 95 0.0 0 0.0 0.8 2.9 227
22/11/2020 3:20 -2.1 97 0.0 0 0.0 0.6 2.3 216
22/11/2020 3:30 -2.1 96 0.0 0 0.0 0.5 1.7 196
22/11/2020 3:40 -2.4 95 0.0 0 0.0 0.5 1.7 168
22/11/2020 3:50 -2.6 95 0.0 0 0.0 0.3 1.1 170
22/11/2020 4:00 -2.7 95 0.0 0 0.0 0.5 1.7 162
22/11/2020 4:10 -2.7 95 0.0 0 0.0 0.2 0.6 202
22/11/2020 4:20 -2.8 96 0.0 0 0.0 0.2 0.8 217
22/11/2020 4:30 -2.8 96 0.0 0 0.0 0.3 1.1 175
22/11/2020 4:40 -2.9 96 0.0 0 0.0 0.2 0.9 322
22/11/2020 4:50 -2.9 96 0.0 0 0.0 0.3 1.0 167
22/11/2020 5:00 -3.0 96 0.0 0 0.0 0.4 1.5 223
22/11/2020 5:10 -2.9 96 0.0 0 0.0 0.4 1.4 250
22/11/2020 5:20 -3.0 96 0.0 0 0.0 0.8 2.8 208
22/11/2020 5:30 -2.7 96 0.0 0 0.0 0.7 2.6 227
22/11/2020 5:40 -2.9 96 0.0 0 0.0 0.8 2.8 187
22/11/2020 5:50 -3.0 96 0.0 0 0.0 0.2 0.5 148
22/11/2020 6:00 -3.1 95 0.0 0 0.0 0.5 1.7 204
22/11/2020 6:10 -3.0 96 0.0 0 0.0 0.6 2.1 299
22/11/2020 6:20 -2.7 96 0.0 0 0.0 0.2 0.6 271
22/11/2020 6:30 -3.5 94 0.0 0 0.0 0.6 2.2 251
22/11/2020 6:40 -2.9 97 0.0 0 0.0 0.7 2.7 257
22/11/2020 6:50 -2.5 97 0.0 0 0.0 0.4 1.6 209
22/11/2020 7:00 -2.9 96 0.0 0 0.0 1.3 4.7 140
22/11/2020 7:10 -3.1 95 0.0 0 0.0 0.9 3.2 180
22/11/2020 7:20 -2.9 97 0.0 0 0.0 0.5 1.6 223
22/11/2020 7:30 -2.6 96 0.0 0 0.0 1.0 3.6 338
22/11/2020 7:40 -2.2 96 10.2 0 0.0 1.2 4.3 325
22/11/2020 7:50 -2.2 94 120.5 588 0.0 0.6 2.2 271
22/11/2020 8:00 -2.6 94 178.4 600 0.0 0.3 1.2 201
22/11/2020 8:10 -2.0 97 216.6 600 0.0 0.6 2.0 154
22/11/2020 8:20 -1.6 96 244.3 600 0.0 0.2 0.6 164
22/11/2020 8:30 -1.0 96 234.0 600 0.0 0.2 0.7 186
22/11/2020 8:40 -0.8 95 274.0 600 0.0 0.4 1.5 224
22/11/2020 8:50 -0.1 94 317.5 600 0.0 0.3 1.0 263
22/11/2020 9:00 1.2 92 290.9 600 0.0 0.3 0.9 177
22/11/2020 9:10 1.7 87 260.6 600 0.0 0.1 0.5 96
22/11/2020 9:20 1.9 87 271.1 600 0.0 0.4 1.3 77
22/11/2020 9:30 2.8 84 304.8 600 0.0 0.7 2.4 132
22/11/2020 9:40 4.0 77 318.5 600 0.0 0.8 2.7 161
22/11/2020 9:50 4.5 75 337.4 600 0.0 0.5 1.8 134
22/11/2020 10:00 5.0 75 357.2 600 0.0 0.2 0.8 73
22/11/2020 10:10 4.5 76 380.4 600 0.0 0.5 1.6 44
22/11/2020 10:20 4.8 76 395.3 600 0.0 0.5 1.8 100
22/11/2020 10:30 6.0 72 410.3 600 0.0 0.6 2.1 120
22/11/2020 10:40 6.8 69 425.4 600 0.0 0.8 3.0 178
22/11/2020 10:50 7.7 65 437.7 600 0.0 0.8 2.7 145
22/11/2020 11:00 7.8 65 446.8 600 0.0 0.6 2.2 87
22/11/2020 11:10 7.6 66 454.2 600 0.0 0.5 1.8 104
22/11/2020 11:20 8.4 65 460.0 600 0.0 0.4 1.4 95
22/11/2020 11:30 8.9 63 467.3 600 0.0 0.5 1.7 100
22/11/2020 11:40 8.9 61 469.3 600 0.0 0.5 1.7 46
22/11/2020 11:50 9.5 61 472.9 600 0.0 0.8 2.9 65
22/11/2020 12:00 10.0 59 472.4 600 0.0 0.6 2.2 72
22/11/2020 12:10 10.4 58 471.0 600 0.0 0.5 1.8 118
22/11/2020 12:20 11.0 55 469.5 600 0.0 0.6 2.3 117
22/11/2020 12:30 11.3 52 466.1 600 0.0 0.8 2.7 127
22/11/2020 12:40 11.7 48 443.6 600 0.0 0.7 2.4 163
22/11/2020 12:50 12.3 48 440.8 600 0.0 0.7 2.5 96
22/11/2020 13:00 12.1 48 429.9 600 0.0 0.4 1.3 64
22/11/2020 13:10 12.3 45 422.6 600 0.0 0.3 1.2 81
22/11/2020 13:20 12.3 44 414.6 600 0.0 0.4 1.4 58
22/11/2020 13:30 12.5 45 399.5 600 0.0 0.4 1.4 11
22/11/2020 13:40 12.4 45 388.6 600 0.0 0.4 1.4 53
22/11/2020 13:50 13.4 44 375.1 600 0.0 0.8 3.0 169
22/11/2020 14:00 14.6 43 357.4 600 0.0 1.3 4.6 205
22/11/2020 14:10 15.0 42 335.9 600 0.0 1.3 4.6 206
22/11/2020 14:20 14.8 42 307.4 600 0.0 1.2 4.3 209
22/11/2020 14:30 15.0 40 292.9 600 0.0 1.2 4.2 206
22/11/2020 14:40 15.2 44 269.4 600 0.0 1.3 4.5 212
22/11/2020 14:50 14.7 44 244.1 600 0.0 1.2 4.2 203
22/11/2020 15:00 14.8 44 226.5 600 0.0 0.9 3.3 209
22/11/2020 15:10 14.3 44 201.4 600 0.0 0.8 2.9 202
22/11/2020 15:20 14.3 44 175.2 600 0.0 0.7 2.7 208
22/11/2020 15:30 13.6 46 149.8 600 0.0 1.1 4.1 181
22/11/2020 15:40 12.4 47 124.7 600 0.0 1.3 4.6 179
22/11/2020 15:50 11.0 49 97.8 600 0.0 1.0 3.6 180
22/11/2020 16:00 10.5 52 74.5 600 0.0 0.8 3.0 184
22/11/2020 16:10 9.6 55 46.1 440 0.0 0.8 2.9 180
22/11/2020 16:20 8.6 58 0.0 0 0.0 1.1 3.8 174
22/11/2020 16:30 7.5 63 0.0 0 0.0 1.0 3.7 170
22/11/2020 16:40 6.3 67 0.0 0 0.0 1.2 4.2 168
22/11/2020 16:50 5.5 72 0.0 0 0.0 1.3 4.5 166
22/11/2020 17:00 4.9 74 0.0 0 0.0 0.7 2.3 176
22/11/2020 17:10 4.4 77 0.0 0 0.0 0.6 2.2 197
22/11/2020 17:20 3.8 78 0.0 0 0.0 0.7 2.5 199
22/11/2020 17:30 3.5 80 0.0 0 0.0 0.6 2.1 220
22/11/2020 17:40 3.3 82 0.0 0 0.0 0.5 1.7 187
22/11/2020 17:50 3.3 82 0.0 0 0.0 0.8 2.9 169
22/11/2020 18:00 2.8 81 0.0 0 0.0 1.1 3.9 175
22/11/2020 18:10 2.5 83 0.0 0 0.0 0.4 1.4 209
22/11/2020 18:20 2.1 84 0.0 0 0.0 0.1 0.2 247
22/11/2020 18:30 1.9 85 0.0 0 0.0 0.2 0.6 180
22/11/2020 18:40 1.5 85 0.0 0 0.0 0.3 0.9 168
22/11/2020 18:50 1.1 86 0.0 0 0.0 0.4 1.3 190
22/11/2020 19:00 1.1 88 0.0 0 0.0 0.0 0.0 207
22/11/2020 19:10 1.1 88 0.0 0 0.0 0.2 0.7 172
22/11/2020 19:20 1.0 89 0.0 0 0.0 0.7 2.4 209
22/11/2020 19:30 1.1 90 0.0 0 0.0 0.1 0.4 228
22/11/2020 19:40 0.9 89 0.0 0 0.0 0.1 0.2 161
22/11/2020 19:50 0.6 89 0.0 0 0.0 0.4 1.6 144
22/11/2020 20:00 0.4 90 0.0 0 0.0 0.0 0.1 160
22/11/2020 20:10 0.3 91 0.0 0 0.0 0.2 0.8 233
22/11/2020 20:20 0.6 92 0.0 0 0.0 0.1 0.3 224
22/11/2020 20:30 0.3 91 0.0 0 0.0 0.1 0.5 201
22/11/2020 20:40 -0.0 90 0.0 0 0.0 0.7 2.4 188
22/11/2020 20:50 -0.2 92 0.0 0 0.0 0.2 0.5 183
22/11/2020 21:00 -0.0 93 0.0 0 0.0 0.0 0.0 0
22/11/2020 21:10 -0.2 93 0.0 0 0.0 0.1 0.3 191
22/11/2020 21:20 -0.7 92 0.0 0 0.0 0.2 0.6 200
22/11/2020 21:30 -0.2 95 0.0 0 0.0 0.0 0.0 0
22/11/2020 21:40 -0.8 92 0.0 0 0.0 0.3 1.1 208
22/11/2020 21:50 -0.8 94 0.0 0 0.0 0.6 2.1 234
22/11/2020 22:00 -0.6 95 0.0 0 0.0 0.4 1.5 218
22/11/2020 22:10 -0.8 95 0.0 0 0.0 0.2 0.6 172
22/11/2020 22:20 -0.7 95 0.0 0 0.0 0.0 0.0 344
22/11/2020 22:30 -0.6 95 0.0 0 0.0 0.3 1.2 21
22/11/2020 22:40 -0.8 94 0.0 0 0.0 0.2 0.5 329
22/11/2020 22:50 -1.3 93 0.0 0 0.0 0.2 0.7 220
22/11/2020 23:00 -1.5 95 0.0 0 0.0 0.3 1.2 197
22/11/2020 23:10 -1.4 96 0.0 0 0.0 0.8 2.9 185
22/11/2020 23:20 -1.5 95 0.0 0 0.0 0.5 1.6 185
22/11/2020 23:30 -1.2 96 0.0 0 0.0 0.2 0.8 192
22/11/2020 23:40 -1.5 95 0.0 0 0.0 1.0 3.6 207
22/11/2020 23:50 -1.6 96 0.0 0 0.0 0.9 3.2 207
Anterior Página 1 de 1 Siguiente

NOTA: Tipo de datos según el color:
   - Valores diarios o 10 minutos correctos
   - Valores diarios calculados a partir de un número de datos 10 minutos menor que 144 y mayor que 120, o de un número de datos semihorarios menor que 48 y mayor que 40 (caso de las estaciones de INTIA Y Ministerio)
   - Valores diez minutos estimados


Contacto        Enlaces        Aviso legal